Time;durP1;ratioP1;P1;durP2;ratioP2;P2;SDS_P1;SDS_P2;PMS_P1;PMS_P2;Temp;Humidity;BMP_temperature;BMP_pressure;BME280_temperature;BME280_humidity;BME280_pressure;Samples;Min_cycle;Max_cycle;Signal;HPM_P1;HPM_P2
2023/07/09 00:01:51;;;;;;;8.82;7.18;;;20.90;99.90;;;;;;5133445;27;20197;-27
2023/07/09 00:04:18;;;;;;;10.52;6.80;;;20.90;99.90;;;;;;5135544;27;20455;-28
2023/07/09 00:06:44;;;;;;;9.75;6.30;;;20.80;99.90;;;;;;5135682;27;20039;-26
2023/07/09 00:09:14;;;;;;;12.40;6.18;;;20.80;99.90;;;;;;5132800;27;20055;-26
2023/07/09 00:11:41;;;;;;;10.05;5.70;;;20.70;99.90;;;;;;5131132;27;20043;-27
2023/07/09 00:14:09;;;;;;;8.77;6.28;;;20.70;99.90;;;;;;5134375;27;20484;-27
2023/07/09 00:16:36;;;;;;;7.85;6.07;;;20.70;99.90;;;;;;5133565;27;20476;-27
2023/07/09 00:19:02;;;;;;;7.60;6.25;;;20.70;99.90;;;;;;5094079;27;20043;-25
2023/07/09 00:21:33;;;;;;;11.93;7.13;;;20.70;99.90;;;;;;5126888;27;20035;-27
2023/07/09 00:24:04;;;;;;;10.05;6.18;;;20.70;99.90;;;;;;5130545;27;20096;-27
2023/07/09 00:26:34;;;;;;;8.40;6.53;;;20.70;99.90;;;;;;5132288;27;20130;-27
2023/07/09 00:29:00;;;;;;;8.10;6.00;;;20.70;99.90;;;;;;5082251;27;20050;-27
2023/07/09 00:31:26;;;;;;;9.07;5.70;;;20.70;99.90;;;;;;5134651;27;20039;-28
2023/07/09 00:33:54;;;;;;;8.10;5.97;;;20.70;99.90;;;;;;5133991;27;20063;-27
2023/07/09 00:36:33;;;;;;;10.73;6.72;;;20.60;99.90;;;;;;5133958;27;20059;-27
2023/07/09 00:39:04;;;;;;;14.13;5.95;;;20.60;1.00;;;;;;5134990;27;20104;-27
2023/07/09 00:41:36;;;;;;;9.15;6.30;;;20.60;1.00;;;;;;5112148;28;20044;-25
2023/07/09 00:44:30;;;;;;;9.88;6.05;;;20.60;1.00;;;;;;5111634;27;20480;-26
2023/07/09 00:46:57;;;;;;;;;;;20.60;1.00;;;;;;5113068;27;20060;-27
2023/07/09 00:49:46;;;;;;;8.27;6.32;;;20.60;1.00;;;;;;5131354;27;20391;-24
2023/07/09 00:52:29;;;;;;;13.95;7.57;;;20.50;1.00;;;;;;5131594;27;20465;-27
2023/07/09 00:54:58;;;;;;;12.68;6.80;;;20.50;1.00;;;;;;5131473;27;20047;-27
2023/07/09 00:57:26;;;;;;;9.05;6.15;;;20.50;1.00;;;;;;5130313;27;20492;-27
2023/07/09 00:59:59;;;;;;;9.57;6.15;;;20.60;1.00;;;;;;5128517;27;20047;-27
2023/07/09 01:02:25;;;;;;;;;;;20.60;1.00;;;;;;5132840;27;20439;-25
2023/07/09 01:04:54;;;;;;;9.75;6.75;;;20.60;1.00;;;;;;5131811;27;19923;-28
2023/07/09 01:07:21;;;;;;;12.27;6.72;;;20.60;1.00;;;;;;5132148;27;20131;-27
2023/07/09 01:09:47;;;;;;;10.93;6.82;;;20.60;1.00;;;;;;5108729;28;20109;-27
2023/07/09 01:12:14;;;;;;;12.00;6.75;;;20.60;1.00;;;;;;5130421;28;20404;-25
2023/07/09 01:14:40;;;;;;;12.07;6.80;;;20.60;1.00;;;;;;5129324;28;20409;-27
2023/07/09 01:17:09;;;;;;;12.48;6.97;;;20.50;1.00;;;;;;5129607;28;20047;-27
2023/07/09 01:19:44;;;;;;;12.20;7.38;;;20.40;1.00;;;;;;5132997;28;20062;-28
2023/07/09 01:22:20;;;;;;;9.38;7.45;;;20.30;1.00;;;;;;5112897;28;20043;-27
2023/07/09 01:25:04;;;;;;;8.32;5.97;;;20.20;1.00;;;;;;5129568;27;20054;-27
2023/07/09 01:27:50;;;;;;;12.23;7.80;;;20.10;21.80;;;;;;5137566;27;20099;-27
2023/07/09 01:30:16;;;;;;;9.80;7.40;;;20.10;99.90;;;;;;5134638;27;20051;-27
2023/07/09 01:32:45;;;;;;;13.25;7.80;;;20.00;99.90;;;;;;5134348;27;20043;-27
2023/07/09 01:35:14;;;;;;;12.52;7.38;;;19.90;99.90;;;;;;5132333;27;20450;-25
2023/07/09 01:37:41;;;;;;;12.68;7.65;;;19.90;99.90;;;;;;5126778;27;20050;-27
2023/07/09 01:40:09;;;;;;;8.18;6.75;;;19.80;99.90;;;;;;5129944;27;20051;-27
2023/07/09 01:42:36;;;;;;;9.52;6.47;;;19.80;99.90;;;;;;5124984;27;20043;-27
2023/07/09 01:45:04;;;;;;;13.13;7.40;;;19.80;99.90;;;;;;5100356;27;20115;-28
2023/07/09 01:47:30;;;;;;;10.50;7.40;;;19.70;99.90;;;;;;5134784;27;20118;-27
2023/07/09 01:49:57;;;;;;;13.40;7.18;;;19.70;99.90;;;;;;5117520;27;20171;-25
2023/07/09 01:52:25;;;;;;;11.55;6.75;;;19.70;99.90;;;;;;5118359;27;20047;-25
2023/07/09 01:54:51;;;;;;;9.60;7.30;;;19.60;99.90;;;;;;5118506;27;20050;-27
2023/07/09 01:57:23;;;;;;;9.40;6.68;;;19.50;99.90;;;;;;5090764;28;20043;-27
2023/07/09 01:59:50;;;;;;;11.30;6.75;;;19.60;99.90;;;;;;5128776;27;20047;-27
2023/07/09 02:02:20;;;;;;;9.65;6.70;;;19.50;1.00;;;;;;5132228;27;20061;-27
2023/07/09 02:04:55;;;;;;;12.20;6.88;;;19.50;1.00;;;;;;5133365;27;20043;-27
2023/07/09 02:07:23;;;;;;;11.05;6.80;;;19.40;1.00;;;;;;5132774;27;20055;-28
2023/07/09 02:09:49;;;;;;;12.27;6.95;;;19.40;1.00;;;;;;5118604;27;20454;-28
2023/07/09 02:12:16;;;;;;;10.57;7.28;;;19.40;1.00;;;;;;5135131;27;20557;-27
2023/07/09 02:14:44;;;;;;;9.13;7.45;;;19.40;1.00;;;;;;5135670;27;20066;-27
2023/07/09 02:17:11;;;;;;;9.98;7.40;;;19.50;1.00;;;;;;5135468;27;20148;-26
2023/07/09 02:19:37;;;;;;;15.65;7.47;;;19.50;1.00;;;;;;5099249;27;20114;-26
2023/07/09 02:22:03;;;;;;;9.65;6.85;;;19.60;1.00;;;;;;5135998;27;20122;-27
2023/07/09 02:24:29;;;;;;;12.32;6.75;;;19.60;1.00;;;;;;5135380;27;20074;-27
2023/07/09 02:26:57;;;;;;;10.10;7.32;;;19.60;1.00;;;;;;5137009;27;20074;-27
2023/07/09 02:29:24;;;;;;;10.93;6.80;;;19.70;1.00;;;;;;5137668;27;20130;-27
2023/07/09 02:31:51;;;;;;;9.85;6.93;;;19.70;1.00;;;;;;5135329;27;20072;-27
2023/07/09 02:34:18;;;;;;;10.30;7.22;;;19.70;99.90;;;;;;5133303;27;20039;-27
2023/07/09 02:36:44;;;;;;;10.35;6.82;;;19.70;99.90;;;;;;5136420;27;20043;-26
2023/07/09 02:39:12;;;;;;;11.85;7.25;;;19.70;99.90;;;;;;5134141;27;20043;-26
2023/07/09 02:41:39;;;;;;;11.35;6.53;;;19.60;99.90;;;;;;5135182;27;20043;-26
2023/07/09 02:44:05;;;;;;;11.70;6.97;;;19.60;99.90;;;;;;5119285;27;20047;-27
2023/07/09 02:46:31;;;;;;;10.60;6.45;;;19.60;99.90;;;;;;5133714;27;20047;-27
2023/07/09 02:48:57;;;;;;;11.50;7.28;;;19.60;99.90;;;;;;5132774;27;20050;-27
2023/07/09 02:51:26;;;;;;;11.77;7.20;;;19.50;99.90;;;;;;5113674;27;20907;-24
2023/07/09 02:53:54;;;;;;;9.25;7.13;;;19.50;1.00;;;;;;5117404;27;20392;-27
2023/07/09 02:56:20;;;;;;;8.60;6.85;;;19.40;1.00;;;;;;5131887;27;20721;-27
2023/07/09 02:58:46;;;;;;;10.70;7.60;;;19.30;1.00;;;;;;5117012;27;20039;-24
2023/07/09 03:01:12;;;;;;;12.63;8.18;;;19.30;1.00;;;;;;5097536;27;20042;-27
2023/07/09 03:03:39;;;;;;;14.18;7.72;;;19.20;16.50;;;;;;5136111;27;20035;-28
2023/07/09 03:06:06;;;;;;;10.60;7.88;;;19.20;62.60;;;;;;5115573;27;20553;-25
2023/07/09 03:08:32;;;;;;;12.48;8.25;;;19.20;88.10;;;;;;5133143;27;20044;-28
2023/07/09 03:10:58;;;;;;;12.77;8.45;;;19.10;99.90;;;;;;5134000;27;20047;-27
2023/07/09 03:13:24;;;;;;;14.45;8.75;;;19.00;99.90;;;;;;5134313;27;20039;-27
2023/07/09 03:15:57;;;;;;;10.95;8.77;;;18.90;99.90;;;;;;5116867;27;20096;-26
2023/07/09 03:18:23;;;;;;;11.50;8.05;;;18.90;99.90;;;;;;5096018;27;20053;-25
2023/07/09 03:20:49;;;;;;;11.93;9.82;;;18.90;99.90;;;;;;5130017;27;20456;-27
2023/07/09 03:23:14;;;;;;;14.77;8.60;;;18.90;99.90;;;;;;5132694;27;20122;-27
2023/07/09 03:25:44;;;;;;;9.77;8.05;;;18.80;1.00;;;;;;5099292;27;20412;-27
2023/07/09 03:28:11;;;;;;;11.75;8.15;;;18.80;1.00;;;;;;5108637;28;20043;-27
2023/07/09 03:30:45;;;;;;;12.05;8.43;;;18.80;1.00;;;;;;5103869;27;20051;-27
2023/07/09 03:33:12;;;;;;;10.48;8.07;;;18.80;1.00;;;;;;5133399;27;20055;-26
2023/07/09 03:35:39;;;;;;;10.68;7.45;;;18.80;1.00;;;;;;5134227;27;20043;-25
2023/07/09 03:38:05;;;;;;;11.55;8.82;;;18.80;1.00;;;;;;5133362;27;20043;-25
2023/07/09 03:40:31;;;;;;;10.63;8.45;;;18.80;56.60;;;;;;5114470;27;20044;-27
2023/07/09 03:42:57;;;;;;;10.45;8.68;;;18.80;68.10;;;;;;5131578;27;20096;-27
2023/07/09 03:45:23;;;;;;;12.95;8.23;;;18.80;58.40;;;;;;5134895;27;20046;-27
2023/07/09 03:47:49;;;;;;;12.05;8.57;;;18.80;56.80;;;;;;5133716;27;20039;-26
2023/07/09 03:50:15;;;;;;;10.43;8.65;;;18.80;94.70;;;;;;5105996;27;20054;-25
2023/07/09 03:52:41;;;;;;;8.82;7.72;;;18.80;91.80;;;;;;5133609;27;20069;-26
2023/07/09 03:55:08;;;;;;;16.80;8.18;;;18.80;81.20;;;;;;5130039;27;20054;-25
2023/07/09 03:57:34;;;;;;;8.82;7.45;;;18.90;59.20;;;;;;5135202;27;20435;-26
2023/07/09 04:00:00;;;;;;;12.00;7.90;;;18.90;60.00;;;;;;5113276;27;20051;-27
2023/07/09 04:02:26;;;;;;;14.45;8.48;;;19.00;27.20;;;;;;5132268;27;20051;-25
2023/07/09 04:04:52;;;;;;;12.50;7.60;;;19.00;10.30;;;;;;5113480;27;20039;-26
2023/07/09 04:07:17;;;;;;;10.23;7.60;;;19.00;1.00;;;;;;5116876;27;20043;-26
2023/07/09 04:09:43;;;;;;;11.10;7.82;;;19.10;1.00;;;;;;5132385;27;20051;-26
2023/07/09 04:12:10;;;;;;;11.13;7.82;;;19.10;1.00;;;;;;5118036;27;20050;-27
2023/07/09 04:14:36;;;;;;;13.77;7.60;;;19.10;1.00;;;;;;5132743;27;20035;-24
2023/07/09 04:17:02;;;;;;;9.35;7.45;;;19.20;1.00;;;;;;5132802;27;20385;-27
2023/07/09 04:19:28;;;;;;;9.50;7.05;;;19.20;1.00;;;;;;5113333;27;20035;-26
2023/07/09 04:21:54;;;;;;;11.90;8.02;;;19.30;1.00;;;;;;5116141;27;20080;-26
2023/07/09 04:24:20;;;;;;;12.32;8.50;;;19.30;1.00;;;;;;5132440;27;20039;-27
2023/07/09 04:26:47;;;;;;;11.20;8.25;;;19.30;1.00;;;;;;5131600;27;20035;-27
2023/07/09 04:29:14;;;;;;;13.15;8.35;;;19.30;1.00;;;;;;5100379;27;20058;-26
2023/07/09 04:31:40;;;;;;;10.00;7.50;;;19.30;1.00;;;;;;5117467;27;20377;-26
2023/07/09 04:34:07;;;;;;;13.57;8.02;;;19.40;1.00;;;;;;5115051;27;20047;-25
2023/07/09 04:36:33;;;;;;;16.20;7.78;;;19.40;1.00;;;;;;5131438;27;20073;-27
2023/07/09 04:38:58;;;;;;;10.95;7.82;;;19.50;1.00;;;;;;5133268;27;20153;-25
2023/07/09 04:41:24;;;;;;;12.05;8.45;;;19.50;1.00;;;;;;5131344;27;20412;-27
2023/07/09 04:43:50;;;;;;;12.23;9.02;;;19.60;1.00;;;;;;5131194;27;20099;-26
2023/07/09 04:46:16;;;;;;;9.27;7.93;;;19.70;1.00;;;;;;5111841;27;20561;-28
2023/07/09 04:48:42;;;;;;;10.48;7.57;;;19.70;1.00;;;;;;5134189;27;20054;-27
2023/07/09 04:51:08;;;;;;;10.32;7.18;;;19.80;1.00;;;;;;5132994;27;20492;-25
2023/07/09 04:53:34;;;;;;;8.07;7.13;;;19.90;1.00;;;;;;5132479;27;20043;-27
2023/07/09 04:56:02;;;;;;;8.90;7.03;;;19.90;1.00;;;;;;5114437;27;20043;-27
2023/07/09 04:58:29;;;;;;;15.35;8.48;;;20.10;1.00;;;;;;5113739;27;20092;-29
2023/07/09 05:00:59;;;;;;;9.75;7.82;;;20.20;99.90;;;;;;5130429;27;20119;-27
2023/07/09 05:03:25;;;;;;;11.80;7.88;;;20.20;99.90;;;;;;5133388;27;20393;-26
2023/07/09 05:05:52;;;;;;;9.82;6.60;;;20.30;99.90;;;;;;5113914;28;20051;-27
2023/07/09 05:08:18;;;;;;;10.48;7.45;;;20.40;99.90;;;;;;5131733;27;20100;-26
2023/07/09 05:10:51;;;;;;;10.27;7.50;;;20.50;99.90;;;;;;5132935;27;20090;-27
2023/07/09 05:13:17;;;;;;;13.15;7.82;;;20.60;99.90;;;;;;5130277;27;20108;-27
2023/07/09 05:15:44;;;;;;;9.73;7.80;;;20.60;99.90;;;;;;5130335;28;20064;-27
2023/07/09 05:18:11;;;;;;;10.40;7.63;;;20.80;99.90;;;;;;5130434;28;20103;-25
2023/07/09 05:20:37;;;;;;;13.07;7.60;;;20.90;99.90;;;;;;5129825;28;20039;-27
2023/07/09 05:23:03;;;;;;;10.20;7.72;;;21.00;99.90;;;;;;5132147;28;20047;-27
2023/07/09 05:25:29;;;;;;;12.80;7.75;;;21.20;99.90;;;;;;5131227;28;20081;-27
2023/07/09 05:27:54;;;;;;;11.05;7.68;;;21.50;99.90;;;;;;5132260;28;20046;-27
2023/07/09 05:30:20;;;;;;;11.82;7.20;;;21.90;1.00;;;;;;5110584;28;20043;-27
2023/07/09 05:32:46;;;;;;;12.38;7.07;;;22.10;1.00;;;;;;5129652;28;20035;-27
2023/07/09 05:35:13;;;;;;;12.43;8.18;;;22.30;99.90;;;;;;5104175;28;20044;-27
2023/07/09 05:37:39;;;;;;;12.82;8.15;;;22.40;99.90;;;;;;5124904;28;20405;-26
2023/07/09 05:40:06;;;;;;;10.02;7.72;;;22.60;99.90;;;;;;5128754;28;20043;-27
2023/07/09 05:42:33;;;;;;;13.27;8.07;;;22.80;92.70;;;;;;5132076;28;20100;-27
2023/07/09 05:44:59;;;;;;;12.73;8.07;;;23.10;1.00;;;;;;5131118;28;20054;-27
2023/07/09 05:47:25;;;;;;;10.45;7.68;;;23.40;1.00;;;;;;5091570;28;20047;-25
2023/07/09 05:49:52;;;;;;;11.55;7.63;;;23.60;99.90;;;;;;5129019;28;20126;-25
2023/07/09 05:52:19;;;;;;;10.75;7.88;;;23.90;99.90;;;;;;5112970;28;20400;-27
2023/07/09 05:54:46;;;;;;;12.32;7.57;;;24.00;1.00;;;;;;5134602;28;20062;-27
2023/07/09 05:57:12;;;;;;;8.32;6.93;;;23.80;1.00;;;;;;5133606;28;20043;-27
2023/07/09 05:59:37;;;;;;;14.93;7.90;;;23.70;1.00;;;;;;5133155;28;20054;-25
2023/07/09 06:02:04;;;;;;;12.52;7.85;;;23.60;85.40;;;;;;5130091;28;20039;-27
2023/07/09 06:04:32;;;;;;;12.50;7.32;;;23.90;73.40;;;;;;5129984;28;20459;-27
2023/07/09 06:06:58;;;;;;;11.70;7.38;;;24.20;1.00;;;;;;5115417;28;20561;-27
2023/07/09 06:09:24;;;;;;;11.00;7.80;;;24.10;1.00;;;;;;5134050;28;20055;-28
2023/07/09 06:11:50;;;;;;;9.07;6.78;;;24.10;1.00;;;;;;5134159;27;20404;-27
2023/07/09 06:14:16;;;;;;;10.20;7.90;;;24.00;1.00;;;;;;5133083;27;20043;-29
2023/07/09 06:16:43;;;;;;;10.90;7.80;;;24.00;1.00;;;;;;5136221;27;20041;-27
2023/07/09 06:19:09;;;;;;;10.23;7.78;;;24.00;99.10;;;;;;5133571;27;20127;-27
2023/07/09 06:21:36;;;;;;;12.93;8.30;;;24.20;99.90;;;;;;5135826;27;20039;-27
2023/07/09 06:24:02;;;;;;;9.68;8.05;;;24.50;8.90;;;;;;5132051;27;20488;-27
2023/07/09 06:26:27;;;;;;;10.52;8.18;;;24.70;1.00;;;;;;5118533;27;20047;-27
2023/07/09 06:28:53;;;;;;;10.77;8.20;;;25.20;1.00;;;;;;5118586;27;20126;-26
2023/07/09 06:31:20;;;;;;;11.65;8.27;;;25.80;99.90;;;;;;5119161;27;20035;-27
2023/07/09 06:33:47;;;;;;;11.35;7.40;;;26.30;1.00;;;;;;5115615;27;20050;-28
2023/07/09 06:36:13;;;;;;;12.57;7.55;;;26.70;1.00;;;;;;5132831;27;20044;-27
2023/07/09 06:38:38;;;;;;;17.67;8.65;;;26.90;99.90;;;;;;5119130;27;20052;-27
2023/07/09 06:41:04;;;;;;;11.55;7.95;;;27.20;99.90;;;;;;5115276;27;20046;-27
2023/07/09 06:43:31;;;;;;;17.25;8.15;;;27.60;99.90;;;;;;5136976;27;20377;-26
2023/07/09 06:46:01;;;;;;;12.38;7.43;;;27.80;26.10;;;;;;5136657;27;20043;-27
2023/07/09 06:48:28;;;;;;;14.85;7.43;;;28.10;1.00;;;;;;5135314;27;20050;-27
2023/07/09 06:50:56;;;;;;;11.23;6.95;;;28.00;1.00;;;;;;5133288;27;20035;-27
2023/07/09 06:53:22;;;;;;;11.43;7.20;;;27.50;82.20;;;;;;5135501;27;20047;-27
2023/07/09 06:55:52;;;;;;;8.15;6.72;;;26.90;99.90;;;;;;5135174;27;20055;-27
2023/07/09 06:58:19;;;;;;;10.95;7.32;;;26.80;99.90;;;;;;5135732;27;20393;-27
2023/07/09 07:00:45;;;;;;;11.40;7.55;;;27.20;99.90;;;;;;5135138;27;20046;-28
2023/07/09 07:03:11;;;;;;;9.90;7.15;;;27.50;82.40;;;;;;5135847;27;20051;-27
2023/07/09 07:05:37;;;;;;;11.25;7.60;;;28.10;1.00;;;;;;5081322;28;20051;-27
2023/07/09 07:08:03;;;;;;;9.07;7.70;;;28.20;1.00;;;;;;5131736;27;20079;-27
2023/07/09 07:10:30;;;;;;;11.65;8.07;;;28.40;1.00;;;;;;5133403;27;20047;-27
2023/07/09 07:12:56;;;;;;;11.55;8.15;;;28.90;99.90;;;;;;5131478;27;20118;-25
2023/07/09 07:15:22;;;;;;;12.95;8.73;;;29.50;99.90;;;;;;5136719;27;20086;-27
2023/07/09 07:17:48;;;;;;;12.25;8.32;;;30.00;99.90;;;;;;5118587;27;20465;-27
2023/07/09 07:20:15;;;;;;;12.38;7.85;;;30.10;99.90;;;;;;5115822;27;20114;-28
2023/07/09 07:22:41;;;;;;;14.48;9.38;;;30.30;67.10;;;;;;5133580;27;20039;-27
2023/07/09 07:25:07;;;;;;;9.82;7.85;;;30.70;33.70;;;;;;5135637;27;20514;-27
2023/07/09 07:27:34;;;;;;;12.55;7.80;;;30.40;1.00;;;;;;5135513;27;20055;-27
2023/07/09 07:30:00;;;;;;;10.20;7.63;;;30.10;1.00;;;;;;5136580;27;20043;-28
2023/07/09 07:32:26;;;;;;;10.85;7.63;;;29.60;30.00;;;;;;5135349;27;20045;-28
2023/07/09 07:34:54;;;;;;;9.05;7.63;;;29.00;95.30;;;;;;5116609;27;20035;-27
2023/07/09 07:37:20;;;;;;;12.00;8.40;;;28.60;99.90;;;;;;5115151;27;20047;-27
2023/07/09 07:39:47;;;;;;;11.90;7.90;;;28.30;99.90;;;;;;5131602;27;20123;-27
2023/07/09 07:42:12;;;;;;;11.02;7.72;;;27.90;1.00;;;;;;5131760;27;20031;-27
2023/07/09 07:44:38;;;;;;;9.88;8.35;;;27.80;1.00;;;;;;5135902;27;20088;-27
2023/07/09 07:47:05;;;;;;;11.68;8.13;;;28.10;32.30;;;;;;5100881;27;20404;-27
2023/07/09 07:49:31;;;;;;;13.23;8.13;;;28.70;1.00;;;;;;5133503;27;20046;-27
2023/07/09 07:51:56;;;;;;;13.23;8.18;;;29.50;1.00;;;;;;5133659;27;20042;-28
2023/07/09 07:54:22;;;;;;;12.63;9.48;;;29.70;99.90;;;;;;5133000;27;20072;-27
2023/07/09 07:56:48;;;;;;;19.63;9.70;;;30.00;99.90;;;;;;5096135;28;20485;-27
2023/07/09 07:59:15;;;;;;;11.38;8.52;;;30.20;99.90;;;;;;5115174;28;20089;-27
2023/07/09 08:01:40;;;;;;;13.13;9.43;;;30.20;99.90;;;;;;5122465;27;20058;-27
2023/07/09 08:04:06;;;;;;;17.38;10.07;;;30.30;99.90;;;;;;5133922;27;20046;-26
2023/07/09 08:06:32;;;;;;;15.40;10.88;;;30.20;99.90;;;;;;5132949;27;20046;-26
2023/07/09 08:08:58;;;;;;;11.95;9.63;;;30.30;99.90;;;;;;5132141;27;20050;-27
2023/07/09 08:11:24;;;;;;;14.13;11.57;;;30.60;99.90;;;;;;5095123;27;20063;-27
2023/07/09 08:13:50;;;;;;;20.20;11.25;;;30.50;94.40;;;;;;5113135;27;20043;-27
2023/07/09 08:16:16;;;;;;;14.82;10.95;;;30.40;93.60;;;;;;5135483;27;20396;-28
2023/07/09 08:18:42;;;;;;;14.82;11.90;;;30.40;99.90;;;;;;5130597;27;20051;-27
2023/07/09 08:21:09;;;;;;;15.45;11.70;;;30.50;99.90;;;;;;5096756;27;20095;-28
2023/07/09 08:23:35;;;;;;;13.95;11.40;;;30.30;99.90;;;;;;5133279;27;20043;-27
2023/07/09 08:26:02;;;;;;;19.80;12.43;;;30.10;99.90;;;;;;5128057;27;20413;-28
2023/07/09 08:28:29;;;;;;;13.57;11.48;;;30.10;99.90;;;;;;5132120;27;20066;-28
2023/07/09 08:30:56;;;;;;;16.52;12.68;;;30.00;99.90;;;;;;5132748;27;20118;-26
2023/07/09 08:33:25;;;;;;;13.48;10.38;;;29.80;99.90;;;;;;5114600;27;20039;-28
2023/07/09 08:35:53;;;;;;;15.40;11.70;;;29.70;1.00;;;;;;5115055;27;20046;-28
2023/07/09 08:38:19;;;;;;;16.13;12.23;;;29.60;1.00;;;;;;5109715;27;20512;-28
2023/07/09 08:41:07;;;;;;;14.07;11.13;;;29.70;1.00;;;;;;5130220;27;20036;-27
2023/07/09 08:43:35;;;;;;;14.00;11.73;;;29.50;1.00;;;;;;5130474;27;20042;-26
2023/07/09 08:46:03;;;;;;;13.95;12.07;;;29.40;99.90;;;;;;5133378;27;20051;-27
2023/07/09 08:48:33;;;;;;;14.93;11.75;;;29.60;99.90;;;;;;5113108;27;20050;-27
2023/07/09 08:51:17;;;;;;;19.63;13.20;;;29.30;99.90;;;;;;5135564;27;20236;-27
2023/07/09 08:53:53;;;;;;;16.63;12.93;;;29.20;99.90;;;;;;5134935;27;20051;-28
2023/07/09 08:56:19;;;;;;;16.83;12.60;;;29.40;1.00;;;;;;5134937;27;20072;-28
2023/07/09 08:58:47;;;;;;;14.35;12.13;;;29.40;1.00;;;;;;5129095;27;20047;-28
2023/07/09 09:01:21;;;;;;;18.27;14.20;;;29.10;99.90;;;;;;5132851;27;20046;-28
2023/07/09 09:03:51;;;;;;;14.57;12.18;;;28.90;99.90;;;;;;5114361;27;20053;-28
2023/07/09 09:06:21;;;;;;;15.65;13.27;;;28.80;99.90;;;;;;5115510;27;20043;-29
2023/07/09 09:08:55;;;;;;;16.83;12.82;;;29.00;99.90;;;;;;5132472;27;20051;-28
2023/07/09 09:11:46;;;;;;;20.55;13.10;;;29.30;1.00;;;;;;5113638;27;20054;-28
2023/07/09 09:14:25;;;;;;;16.08;11.88;;;29.60;1.00;;;;;;5134450;27;20051;-29
2023/07/09 09:16:53;;;;;;;15.65;12.63;;;29.90;1.00;;;;;;5113126;28;20091;-28
2023/07/09 09:19:37;;;;;;;16.45;11.40;;;29.90;1.00;;;;;;5133607;28;20051;-26
2023/07/09 09:22:13;;;;;;;14.32;11.13;;;29.60;99.90;;;;;;5132177;28;20099;-28
2023/07/09 09:25:02;;;;;;;18.80;12.82;;;29.70;99.90;;;;;;5129419;28;20045;-28
2023/07/09 09:27:28;;;;;;;14.13;12.60;;;29.90;1.00;;;;;;5107418;28;20086;-29
2023/07/09 09:29:53;;;;;;;16.38;12.52;;;30.00;1.00;;;;;;5128763;28;20062;-26
2023/07/09 09:32:28;;;;;;;18.23;11.50;;;30.10;99.90;;;;;;5130272;28;20047;-28
2023/07/09 09:34:55;;;;;;;16.17;12.82;;;30.10;99.90;;;;;;5134302;27;20043;-28
2023/07/09 09:37:30;;;;;;;16.02;11.60;;;30.40;1.00;;;;;;5133409;28;20059;-27
2023/07/09 09:39:56;;;;;;;16.38;12.38;;;30.30;1.00;;;;;;5128887;28;20042;-27
2023/07/09 09:42:25;;;;;;;16.63;12.60;;;30.60;99.90;;;;;;5132412;28;20039;-28
2023/07/09 09:44:53;;;;;;;18.48;12.93;;;30.60;99.90;;;;;;5110762;28;20123;-28
2023/07/09 09:47:18;;;;;;;13.90;11.82;;;30.60;99.90;;;;;;5096853;27;20043;-28
2023/07/09 09:49:44;;;;;;;17.08;12.38;;;30.90;99.90;;;;;;5138657;27;20504;-28
2023/07/09 09:52:18;;;;;;;13.65;10.70;;;31.10;99.90;;;;;;5136081;27;20403;-29
2023/07/09 09:54:54;;;;;;;16.77;12.00;;;31.20;99.90;;;;;;5128761;27;20046;-28
2023/07/09 09:57:23;;;;;;;14.07;11.70;;;31.40;99.90;;;;;;5136381;27;20165;-28
2023/07/09 09:59:49;;;;;;;10.65;9.50;;;31.50;99.90;;;;;;5133746;27;20066;-27
2023/07/09 10:02:24;;;;;;;12.52;9.90;;;31.70;57.90;;;;;;5132799;27;20086;-28
2023/07/09 10:04:50;;;;;;;13.45;11.75;;;31.10;1.00;;;;;;5132886;27;20054;-27
2023/07/09 10:07:31;;;;;;;13.90;11.20;;;31.30;28.60;;;;;;5131642;27;20121;-26
2023/07/09 10:09:58;;;;;;;16.92;11.50;;;31.40;1.00;;;;;;5134128;27;20049;-29
2023/07/09 10:12:45;;;;;;;14.88;11.35;;;31.70;1.00;;;;;;5135209;27;20047;-28
2023/07/09 10:15:40;;;;;;;12.80;11.00;;;32.00;30.70;;;;;;5136158;27;20085;-28
2023/07/09 10:18:37;;;;;;;14.35;10.40;;;32.20;1.00;;;;;;5135086;27;21564;-26
2023/07/09 10:21:23;;;;;;;13.35;9.73;;;31.70;1.00;;;;;;5113924;27;20043;-27
2023/07/09 10:24:05;;;;;;;11.02;8.63;;;31.70;1.00;;;;;;5132085;27;20498;-29
2023/07/09 10:26:35;;;;;;;;;;;32.10;1.00;;;;;;5134631;27;20119;-27
2023/07/09 10:29:17;;;;;;;9.13;5.57;;;32.20;1.00;;;;;;5113353;27;19919;-28
2023/07/09 10:32:09;;;;;;;12.73;6.28;;;31.70;99.90;;;;;;5133044;27;20560;-28
2023/07/09 10:34:50;;;;;;;8.68;5.47;;;31.40;99.90;;;;;;5129645;27;20527;-27
2023/07/09 10:37:52;;;;;;;7.60;5.68;;;31.70;99.90;;;;;;5115607;27;20057;-28
2023/07/09 10:40:36;;;;;;;8.57;4.95;;;31.80;99.90;;;;;;5115462;27;20042;-29
2023/07/09 10:43:04;;;;;;;8.68;4.40;;;31.50;99.90;;;;;;5117520;27;20061;-28
2023/07/09 10:45:42;;;;;;;7.03;4.38;;;30.90;99.90;;;;;;5117997;27;20500;-28
2023/07/09 10:48:30;;;;;;;7.38;4.55;;;30.90;99.90;;;;;;5134652;27;20079;-28
2023/07/09 10:50:57;;;;;;;6.80;4.80;;;30.70;79.90;;;;;;5105124;27;20039;-26
2023/07/09 10:53:33;;;;;;;7.82;5.10;;;31.00;96.30;;;;;;5112820;27;20035;-28
2023/07/09 10:56:11;;;;;;;9.38;5.55;;;31.40;99.90;;;;;;5131365;27;20068;-28
2023/07/09 10:58:49;;;;;;;9.85;5.20;;;32.00;99.90;;;;;;5134242;27;20046;-28
2023/07/09 11:01:15;;;;;;;7.88;6.10;;;32.70;99.90;;;;;;5105355;28;20043;-28
2023/07/09 11:03:54;;;;;;;10.52;5.55;;;32.70;99.90;;;;;;5132233;27;20100;-28
2023/07/09 11:06:38;;;;;;;9.45;5.32;;;33.40;99.90;;;;;;5135017;27;20096;-28
2023/07/09 11:09:13;;;;;;;10.32;4.88;;;33.80;99.90;;;;;;5107392;27;20068;-28
2023/07/09 11:11:47;;;;;;;6.70;5.30;;;34.30;99.90;;;;;;5135232;27;20050;-29
2023/07/09 11:14:38;;;;;;;10.35;5.72;;;34.70;99.90;;;;;;5115154;27;20125;-27
2023/07/09 11:17:06;;;;;;;6.25;5.15;;;34.90;61.80;;;;;;5134207;27;20047;-29
2023/07/09 11:19:32;;;;;;;10.43;6.40;;;34.70;96.20;;;;;;5118791;27;20043;-28
2023/07/09 11:22:13;;;;;;;6.55;4.88;;;34.90;99.90;;;;;;5136313;27;20043;-28
2023/07/09 11:24:52;;;;;;;11.40;5.40;;;35.10;99.90;;;;;;5116134;28;20043;-28
2023/07/09 11:27:26;;;;;;;8.80;5.80;;;35.20;89.30;;;;;;5116030;28;20496;-28
2023/07/09 11:30:17;;;;;;;10.18;7.38;;;35.30;99.00;;;;;;5128202;27;20373;-29
2023/07/09 11:32:52;;;;;;;7.90;6.00;;;35.30;98.50;;;;;;5101679;27;20123;-28
2023/07/09 11:35:23;;;;;;;9.40;5.80;;;35.00;99.90;;;;;;5131775;27;20053;-28
2023/07/09 11:37:49;;;;;;;9.70;7.20;;;35.30;99.90;;;;;;5135424;27;20042;-26
2023/07/09 11:40:18;;;;;;;7.63;6.20;;;35.50;99.90;;;;;;5108214;27;20051;-27
2023/07/09 11:42:56;;;;;;;9.10;5.95;;;35.80;99.90;;;;;;5116615;27;20122;-26
2023/07/09 11:45:32;;;;;;;7.57;6.30;;;35.90;99.90;;;;;;5135830;27;20053;-28
2023/07/09 11:48:24;;;;;;;7.53;6.20;;;35.90;99.90;;;;;;5137033;27;20049;-28
2023/07/09 11:50:52;;;;;;;7.13;6.18;;;36.30;99.90;;;;;;5136146;27;20039;-28
2023/07/09 11:53:28;;;;;;;7.47;6.07;;;35.60;99.90;;;;;;5135288;27;20096;-26
2023/07/09 11:55:54;;;;;;;7.20;5.97;;;35.60;99.90;;;;;;5133298;27;20049;-28
2023/07/09 11:58:19;;;;;;;6.75;5.88;;;35.50;99.90;;;;;;5136161;27;20083;-28
2023/07/09 12:00:56;;;;;;;8.85;5.47;;;35.80;99.90;;;;;;5135752;27;20095;-28
2023/07/09 12:03:32;;;;;;;8.48;5.63;;;35.60;99.90;;;;;;5135805;27;20477;-29
2023/07/09 12:06:15;;;;;;;7.35;5.68;;;35.10;99.90;;;;;;5133903;27;20484;-28
2023/07/09 12:08:42;;;;;;;6.85;5.32;;;35.00;99.90;;;;;;5136036;27;20089;-28
2023/07/09 12:11:33;;;;;;;7.18;6.32;;;35.20;99.90;;;;;;5117206;27;20055;-28
2023/07/09 12:14:14;;;;;;;8.00;5.57;;;35.60;99.90;;;;;;5135921;27;20039;-27
2023/07/09 12:16:46;;;;;;;8.00;4.90;;;35.90;99.90;;;;;;5133607;27;20042;-28
2023/07/09 12:19:14;;;;;;;10.43;5.00;;;36.00;99.90;;;;;;5114968;28;20047;-27
2023/07/09 12:21:46;;;;;;;9.65;5.20;;;36.10;99.90;;;;;;5114820;28;20123;-28
2023/07/09 12:24:21;;;;;;;7.32;4.70;;;36.20;99.90;;;;;;5114917;28;20046;-28
2023/07/09 12:26:54;;;;;;;6.95;4.90;;;35.60;99.90;;;;;;5128420;27;20039;-28
2023/07/09 12:29:24;;;;;;;8.77;4.72;;;35.60;99.90;;;;;;5135317;27;20054;-28
2023/07/09 12:31:50;;;;;;;6.72;5.10;;;35.00;99.90;;;;;;5135825;27;20131;-28
2023/07/09 12:34:17;;;;;;;7.90;5.25;;;34.70;97.90;;;;;;5135206;27;20126;-28
2023/07/09 12:36:50;;;;;;;7.32;5.75;;;34.50;98.50;;;;;;5116261;27;20047;-28
2023/07/09 12:39:27;;;;;;;8.05;5.35;;;34.00;88.10;;;;;;5135031;27;20500;-27
2023/07/09 12:41:59;;;;;;;7.40;4.70;;;33.90;85.20;;;;;;5134933;27;20440;-28
2023/07/09 12:44:27;;;;;;;5.93;5.25;;;34.30;98.80;;;;;;5116510;27;20131;-28
2023/07/09 12:46:54;;;;;;;11.18;5.00;;;34.50;99.90;;;;;;5133987;27;20047;-27
2023/07/09 12:49:37;;;;;;;7.20;4.75;;;34.20;94.50;;;;;;5134942;27;20047;-28
2023/07/09 12:52:09;;;;;;;6.13;5.07;;;33.80;76.70;;;;;;5134905;27;20476;-28
2023/07/09 12:54:34;;;;;;;11.30;5.22;;;33.80;68.70;;;;;;5135713;27;20047;-28
2023/07/09 12:57:04;;;;;;;7.63;4.78;;;33.50;85.00;;;;;;5134081;27;20473;-26